Mills, Wyoming
Current Conditions -  °F | °C
As of 7:53 PM on Tuesday 21 Oct 2014 (Local Time) from KCPR Reporting Station
Broken Clouds Broken Clouds  
Wind Chill: 57°   Ceiling: 10000
Heat Index: 57°   Visibility: 10mi
Dew Point: 34°   Wind: 13mph
Humidity: 42%   Direction: 220°SW
Pressure: 29.91"   Gusts: NA
Location:  42.84°N, 106.37°W
Report Text: KCPR 220153Z 22011KT 10SM FEW060 BKN100 14/01 A2991 RMK AO2 PK WND 24033/0113 RAB11E39 SLP092 P0000 T01390011
Loading
Personal Weather Stations






























Interactive Weather Map
Tropical Storm Tracking
New forecast layout! Learn more

10-Day Weather Forecast

Advertisements
Track Severe Weather on mobile